sensor_id;sensor_type;location;lat;lon;timestamp;temperature;humidity
46490;DHT22;32204;49.160;8.580;2023-08-08T00:00:35;16.70;99.90
46490;DHT22;32204;49.160;8.580;2023-08-08T00:03:01;16.70;99.90
46490;DHT22;32204;49.160;8.580;2023-08-08T00:05:26;16.80;99.90
46490;DHT22;32204;49.160;8.580;2023-08-08T00:07:52;16.80;99.90
46490;DHT22;32204;49.160;8.580;2023-08-08T00:10:17;16.70;99.90
46490;DHT22;32204;49.160;8.580;2023-08-08T00:12:43;16.70;99.90
46490;DHT22;32204;49.160;8.580;2023-08-08T00:15:09;16.70;99.90
46490;DHT22;32204;49.160;8.580;2023-08-08T00:17:34;16.70;99.90
46490;DHT22;32204;49.160;8.580;2023-08-08T00:20:00;16.70;99.90
46490;DHT22;32204;49.160;8.580;2023-08-08T00:22:26;16.70;99.90
46490;DHT22;32204;49.160;8.580;2023-08-08T00:24:51;16.70;99.90
46490;DHT22;32204;49.160;8.580;2023-08-08T00:27:17;16.70;99.90
46490;DHT22;32204;49.160;8.580;2023-08-08T00:29:42;16.80;99.90
46490;DHT22;32204;49.160;8.580;2023-08-08T00:32:08;16.80;99.90
46490;DHT22;32204;49.160;8.580;2023-08-08T00:34:34;16.90;99.90
46490;DHT22;32204;49.160;8.580;2023-08-08T00:36:59;16.90;99.90
46490;DHT22;32204;49.160;8.580;2023-08-08T00:39:25;16.90;99.90
46490;DHT22;32204;49.160;8.580;2023-08-08T00:41:51;16.90;99.90
46490;DHT22;32204;49.160;8.580;2023-08-08T00:44:16;16.90;99.90
46490;DHT22;32204;49.160;8.580;2023-08-08T00:46:42;16.90;99.90
46490;DHT22;32204;49.160;8.580;2023-08-08T00:49:08;16.90;99.90
46490;DHT22;32204;49.160;8.580;2023-08-08T00:51:34;16.90;99.90
46490;DHT22;32204;49.160;8.580;2023-08-08T00:53:59;16.80;99.90
46490;DHT22;32204;49.160;8.580;2023-08-08T00:56:26;16.90;99.90
46490;DHT22;32204;49.160;8.580;2023-08-08T00:58:51;16.90;99.90
46490;DHT22;32204;49.160;8.580;2023-08-08T01:01:17;16.90;99.90
46490;DHT22;32204;49.160;8.580;2023-08-08T01:03:44;16.90;99.90
46490;DHT22;32204;49.160;8.580;2023-08-08T01:06:19;16.80;99.90
46490;DHT22;32204;49.160;8.580;2023-08-08T01:11:30;16.90;99.90
46490;DHT22;32204;49.160;8.580;2023-08-08T01:13:59;16.90;99.90
46490;DHT22;32204;49.160;8.580;2023-08-08T01:16:26;16.90;99.90
46490;DHT22;32204;49.160;8.580;2023-08-08T01:18:52;16.90;99.90
46490;DHT22;32204;49.160;8.580;2023-08-08T01:21:18;16.90;99.90
46490;DHT22;32204;49.160;8.580;2023-08-08T01:23:50;16.90;99.90
46490;DHT22;32204;49.160;8.580;2023-08-08T01:26:17;16.80;99.90
46490;DHT22;32204;49.160;8.580;2023-08-08T01:28:44;16.80;99.90
46490;DHT22;32204;49.160;8.580;2023-08-08T01:31:10;16.80;99.90
46490;DHT22;32204;49.160;8.580;2023-08-08T01:33:35;16.80;99.90
46490;DHT22;32204;49.160;8.580;2023-08-08T01:36:12;16.70;99.90
46490;DHT22;32204;49.160;8.580;2023-08-08T01:38:44;16.70;99.90
46490;DHT22;32204;49.160;8.580;2023-08-08T01:41:11;16.70;99.90
46490;DHT22;32204;49.160;8.580;2023-08-08T01:43:38;16.50;99.90
46490;DHT22;32204;49.160;8.580;2023-08-08T01:46:04;16.40;99.90
46490;DHT22;32204;49.160;8.580;2023-08-08T01:48:31;16.40;99.90
46490;DHT22;32204;49.160;8.580;2023-08-08T01:50:56;16.30;1.00
46490;DHT22;32204;49.160;8.580;2023-08-08T01:53:22;16.30;1.00
46490;DHT22;32204;49.160;8.580;2023-08-08T01:55:47;16.30;1.00
46490;DHT22;32204;49.160;8.580;2023-08-08T01:58:13;16.30;1.00
46490;DHT22;32204;49.160;8.580;2023-08-08T02:00:39;16.30;1.00
46490;DHT22;32204;49.160;8.580;2023-08-08T02:03:06;16.30;1.00
46490;DHT22;32204;49.160;8.580;2023-08-08T02:05:32;16.30;1.00
46490;DHT22;32204;49.160;8.580;2023-08-08T02:07:58;16.40;1.00
46490;DHT22;32204;49.160;8.580;2023-08-08T02:10:24;16.40;1.00
46490;DHT22;32204;49.160;8.580;2023-08-08T02:12:49;16.30;1.00
46490;DHT22;32204;49.160;8.580;2023-08-08T02:15:15;16.40;1.00
46490;DHT22;32204;49.160;8.580;2023-08-08T02:17:40;16.40;1.00
46490;DHT22;32204;49.160;8.580;2023-08-08T02:20:07;16.40;1.00
46490;DHT22;32204;49.160;8.580;2023-08-08T02:22:33;16.40;1.00
46490;DHT22;32204;49.160;8.580;2023-08-08T02:24:59;16.30;1.00
46490;DHT22;32204;49.160;8.580;2023-08-08T02:27:25;16.30;1.00
46490;DHT22;32204;49.160;8.580;2023-08-08T02:29:50;16.30;1.00
46490;DHT22;32204;49.160;8.580;2023-08-08T02:32:16;16.20;1.00
46490;DHT22;32204;49.160;8.580;2023-08-08T02:34:42;16.20;1.00
46490;DHT22;32204;49.160;8.580;2023-08-08T02:37:08;16.10;1.00
46490;DHT22;32204;49.160;8.580;2023-08-08T02:39:33;16.10;1.00
46490;DHT22;32204;49.160;8.580;2023-08-08T02:41:59;16.10;9.40
46490;DHT22;32204;49.160;8.580;2023-08-08T02:44:25;16.10;16.10
46490;DHT22;32204;49.160;8.580;2023-08-08T02:46:50;16.10;68.60
46490;DHT22;32204;49.160;8.580;2023-08-08T02:49:16;16.10;24.70
46490;DHT22;32204;49.160;8.580;2023-08-08T02:51:41;16.10;57.90
46490;DHT22;32204;49.160;8.580;2023-08-08T02:54:07;16.00;32.50
46490;DHT22;32204;49.160;8.580;2023-08-08T02:56:32;16.00;99.90
46490;DHT22;32204;49.160;8.580;2023-08-08T02:58:58;16.00;99.90
46490;DHT22;32204;49.160;8.580;2023-08-08T03:01:24;16.00;99.90
46490;DHT22;32204;49.160;8.580;2023-08-08T03:03:49;16.00;99.90
46490;DHT22;32204;49.160;8.580;2023-08-08T03:06:15;16.00;99.90
46490;DHT22;32204;49.160;8.580;2023-08-08T03:08:41;16.00;99.90
46490;DHT22;32204;49.160;8.580;2023-08-08T03:11:06;16.00;99.90
46490;DHT22;32204;49.160;8.580;2023-08-08T03:13:32;15.90;99.90
46490;DHT22;32204;49.160;8.580;2023-08-08T03:15:58;15.90;99.90
46490;DHT22;32204;49.160;8.580;2023-08-08T03:18:23;15.90;99.90
46490;DHT22;32204;49.160;8.580;2023-08-08T03:20:51;16.00;99.90
46490;DHT22;32204;49.160;8.580;2023-08-08T03:23:18;15.90;99.90
46490;DHT22;32204;49.160;8.580;2023-08-08T03:25:44;16.00;99.90
46490;DHT22;32204;49.160;8.580;2023-08-08T03:28:09;16.00;99.90
46490;DHT22;32204;49.160;8.580;2023-08-08T03:30:38;15.90;99.90
46490;DHT22;32204;49.160;8.580;2023-08-08T03:33:05;16.00;99.90
46490;DHT22;32204;49.160;8.580;2023-08-08T03:35:30;15.90;99.90
46490;DHT22;32204;49.160;8.580;2023-08-08T03:37:56;15.90;99.90
46490;DHT22;32204;49.160;8.580;2023-08-08T03:40:21;15.80;1.00
46490;DHT22;32204;49.160;8.580;2023-08-08T03:42:47;15.80;1.00
46490;DHT22;32204;49.160;8.580;2023-08-08T03:45:13;15.80;1.00
46490;DHT22;32204;49.160;8.580;2023-08-08T03:47:38;15.80;1.00
46490;DHT22;32204;49.160;8.580;2023-08-08T03:50:06;15.80;1.00
46490;DHT22;32204;49.160;8.580;2023-08-08T03:52:32;15.80;1.00
46490;DHT22;32204;49.160;8.580;2023-08-08T03:55:01;15.90;1.00
46490;DHT22;32204;49.160;8.580;2023-08-08T03:57:26;15.90;1.00
46490;DHT22;32204;49.160;8.580;2023-08-08T03:59:52;15.90;1.00
46490;DHT22;32204;49.160;8.580;2023-08-08T04:02:17;15.90;99.90
46490;DHT22;32204;49.160;8.580;2023-08-08T04:04:43;15.90;1.00
46490;DHT22;32204;49.160;8.580;2023-08-08T04:07:09;15.90;99.90
46490;DHT22;32204;49.160;8.580;2023-08-08T04:09:34;15.80;1.00
46490;DHT22;32204;49.160;8.580;2023-08-08T04:12:00;15.80;1.00
46490;DHT22;32204;49.160;8.580;2023-08-08T04:14:26;15.80;1.00
46490;DHT22;32204;49.160;8.580;2023-08-08T04:16:51;15.80;1.00
46490;DHT22;32204;49.160;8.580;2023-08-08T04:19:17;15.70;1.00
46490;DHT22;32204;49.160;8.580;2023-08-08T04:21:43;15.70;1.00
46490;DHT22;32204;49.160;8.580;2023-08-08T04:24:08;15.70;1.00
46490;DHT22;32204;49.160;8.580;2023-08-08T04:26:34;15.70;1.00
46490;DHT22;32204;49.160;8.580;2023-08-08T04:28:59;15.70;1.00
46490;DHT22;32204;49.160;8.580;2023-08-08T04:31:25;15.70;13.00
46490;DHT22;32204;49.160;8.580;2023-08-08T04:33:52;15.70;1.00
46490;DHT22;32204;49.160;8.580;2023-08-08T04:36:21;15.60;83.70
46490;DHT22;32204;49.160;8.580;2023-08-08T04:38:46;15.60;99.90
46490;DHT22;32204;49.160;8.580;2023-08-08T04:41:12;15.60;99.90
46490;DHT22;32204;49.160;8.580;2023-08-08T04:43:38;15.70;99.90
46490;DHT22;32204;49.160;8.580;2023-08-08T04:46:03;15.70;99.90
46490;DHT22;32204;49.160;8.580;2023-08-08T04:48:29;15.80;99.90
46490;DHT22;32204;49.160;8.580;2023-08-08T04:50:54;15.80;99.90
46490;DHT22;32204;49.160;8.580;2023-08-08T04:53:20;15.80;99.90
46490;DHT22;32204;49.160;8.580;2023-08-08T04:55:46;15.80;99.90
46490;DHT22;32204;49.160;8.580;2023-08-08T04:58:11;15.90;85.60
46490;DHT22;32204;49.160;8.580;2023-08-08T05:00:37;15.90;99.90
46490;DHT22;32204;49.160;8.580;2023-08-08T05:03:03;15.90;99.90
46490;DHT22;32204;49.160;8.580;2023-08-08T05:05:28;16.00;95.00
46490;DHT22;32204;49.160;8.580;2023-08-08T05:07:54;16.30;1.00
46490;DHT22;32204;49.160;8.580;2023-08-08T05:10:19;17.10;1.00
46490;DHT22;32204;49.160;8.580;2023-08-08T05:12:45;17.50;99.90
46490;DHT22;32204;49.160;8.580;2023-08-08T05:15:10;17.60;99.90
46490;DHT22;32204;49.160;8.580;2023-08-08T05:17:36;18.40;99.90
46490;DHT22;32204;49.160;8.580;2023-08-08T05:20:02;18.80;1.00
46490;DHT22;32204;49.160;8.580;2023-08-08T05:22:29;19.10;1.00
46490;DHT22;32204;49.160;8.580;2023-08-08T05:24:54;19.70;1.00
46490;DHT22;32204;49.160;8.580;2023-08-08T05:27:20;20.30;99.90
46490;DHT22;32204;49.160;8.580;2023-08-08T05:29:45;20.60;99.90
46490;DHT22;32204;49.160;8.580;2023-08-08T05:32:11;20.90;99.90
46490;DHT22;32204;49.160;8.580;2023-08-08T05:34:36;20.80;99.90
46490;DHT22;32204;49.160;8.580;2023-08-08T05:37:02;21.00;99.90
46490;DHT22;32204;49.160;8.580;2023-08-08T05:39:29;21.10;99.90
46490;DHT22;32204;49.160;8.580;2023-08-08T05:41:55;21.70;99.90
46490;DHT22;32204;49.160;8.580;2023-08-08T05:44:20;21.90;99.90
46490;DHT22;32204;49.160;8.580;2023-08-08T05:46:47;22.00;99.90
46490;DHT22;32204;49.160;8.580;2023-08-08T05:49:12;21.90;99.90
46490;DHT22;32204;49.160;8.580;2023-08-08T05:51:39;22.70;99.90
46490;DHT22;32204;49.160;8.580;2023-08-08T05:54:05;23.30;99.90
46490;DHT22;32204;49.160;8.580;2023-08-08T05:56:35;23.80;99.90
46490;DHT22;32204;49.160;8.580;2023-08-08T05:59:02;23.70;99.90
46490;DHT22;32204;49.160;8.580;2023-08-08T06:01:27;24.10;99.90
46490;DHT22;32204;49.160;8.580;2023-08-08T06:03:53;24.10;99.90
46490;DHT22;32204;49.160;8.580;2023-08-08T06:06:18;24.30;99.90
46490;DHT22;32204;49.160;8.580;2023-08-08T06:08:44;24.40;99.90
46490;DHT22;32204;49.160;8.580;2023-08-08T06:11:10;24.60;98.70
46490;DHT22;32204;49.160;8.580;2023-08-08T06:13:36;24.70;95.60
46490;DHT22;32204;49.160;8.580;2023-08-08T06:16:02;24.60;91.70
46490;DHT22;32204;49.160;8.580;2023-08-08T06:18:34;25.10;85.80
46490;DHT22;32204;49.160;8.580;2023-08-08T06:21:00;25.40;73.50
46490;DHT22;32204;49.160;8.580;2023-08-08T06:23:26;25.40;59.40
46490;DHT22;32204;49.160;8.580;2023-08-08T06:25:51;25.00;59.10
46490;DHT22;32204;49.160;8.580;2023-08-08T06:28:17;25.10;56.60
46490;DHT22;32204;49.160;8.580;2023-08-08T06:30:43;25.30;55.00
46490;DHT22;32204;49.160;8.580;2023-08-08T06:33:08;25.80;48.60
46490;DHT22;32204;49.160;8.580;2023-08-08T06:35:34;25.60;43.50
46490;DHT22;32204;49.160;8.580;2023-08-08T06:38:00;25.70;40.90
46490;DHT22;32204;49.160;8.580;2023-08-08T06:40:25;26.00;36.10
46490;DHT22;32204;49.160;8.580;2023-08-08T06:42:51;26.30;33.70
46490;DHT22;32204;49.160;8.580;2023-08-08T06:45:17;26.40;30.20
46490;DHT22;32204;49.160;8.580;2023-08-08T06:47:42;26.90;26.10
46490;DHT22;32204;49.160;8.580;2023-08-08T06:50:08;26.80;23.20
46490;DHT22;32204;49.160;8.580;2023-08-08T06:52:34;25.30;25.20
46490;DHT22;32204;49.160;8.580;2023-08-08T06:55:00;23.40;36.60
46490;DHT22;32204;49.160;8.580;2023-08-08T06:57:25;22.30;55.20
46490;DHT22;32204;49.160;8.580;2023-08-08T06:59:51;21.70;78.90
46490;DHT22;32204;49.160;8.580;2023-08-08T07:02:19;21.00;99.10
46490;DHT22;32204;49.160;8.580;2023-08-08T07:04:45;20.60;99.90
46490;DHT22;32204;49.160;8.580;2023-08-08T07:07:11;20.50;99.90
46490;DHT22;32204;49.160;8.580;2023-08-08T07:09:37;20.50;99.90
46490;DHT22;32204;49.160;8.580;2023-08-08T07:12:03;21.30;99.90
46490;DHT22;32204;49.160;8.580;2023-08-08T07:14:29;23.10;99.90
46490;DHT22;32204;49.160;8.580;2023-08-08T07:16:55;24.60;78.30
46490;DHT22;32204;49.160;8.580;2023-08-08T07:19:21;25.40;47.60
46490;DHT22;32204;49.160;8.580;2023-08-08T07:21:47;25.30;40.60
46490;DHT22;32204;49.160;8.580;2023-08-08T07:24:13;24.70;39.90
46490;DHT22;32204;49.160;8.580;2023-08-08T07:26:39;24.10;58.50
46490;DHT22;32204;49.160;8.580;2023-08-08T07:29:04;23.30;54.20
46490;DHT22;32204;49.160;8.580;2023-08-08T07:31:32;22.50;68.30
46490;DHT22;32204;49.160;8.580;2023-08-08T07:33:57;21.70;94.70
46490;DHT22;32204;49.160;8.580;2023-08-08T07:36:23;21.30;99.90
46490;DHT22;32204;49.160;8.580;2023-08-08T07:38:49;20.90;99.90
46490;DHT22;32204;49.160;8.580;2023-08-08T07:41:14;20.90;99.90
46490;DHT22;32204;49.160;8.580;2023-08-08T07:43:40;20.90;99.90
46490;DHT22;32204;49.160;8.580;2023-08-08T07:46:06;20.80;99.90
46490;DHT22;32204;49.160;8.580;2023-08-08T07:48:32;20.80;99.90
46490;DHT22;32204;49.160;8.580;2023-08-08T07:50:57;20.80;99.90
46490;DHT22;32204;49.160;8.580;2023-08-08T07:53:23;20.70;99.90
46490;DHT22;32204;49.160;8.580;2023-08-08T07:55:48;20.80;99.90
46490;DHT22;32204;49.160;8.580;2023-08-08T07:58:14;20.80;99.90
46490;DHT22;32204;49.160;8.580;2023-08-08T08:00:39;20.50;99.90
46490;DHT22;32204;49.160;8.580;2023-08-08T08:03:06;20.30;99.90
46490;DHT22;32204;49.160;8.580;2023-08-08T08:05:32;20.40;99.90
46490;DHT22;32204;49.160;8.580;2023-08-08T08:08:00;20.40;99.90
46490;DHT22;32204;49.160;8.580;2023-08-08T08:10:25;20.40;99.30
46490;DHT22;32204;49.160;8.580;2023-08-08T08:12:51;20.20;98.90
46490;DHT22;32204;49.160;8.580;2023-08-08T08:15:23;20.20;97.50
46490;DHT22;32204;49.160;8.580;2023-08-08T08:17:49;20.40;99.90
46490;DHT22;32204;49.160;8.580;2023-08-08T08:20:15;20.40;99.90
46490;DHT22;32204;49.160;8.580;2023-08-08T08:22:40;20.40;96.30
46490;DHT22;32204;49.160;8.580;2023-08-08T08:25:06;20.20;95.90
46490;DHT22;32204;49.160;8.580;2023-08-08T08:27:36;20.20;99.90
46490;DHT22;32204;49.160;8.580;2023-08-08T08:30:03;20.30;99.90
46490;DHT22;32204;49.160;8.580;2023-08-08T08:32:34;20.40;99.90
46490;DHT22;32204;49.160;8.580;2023-08-08T08:35:02;20.50;99.90
46490;DHT22;32204;49.160;8.580;2023-08-08T08:37:30;20.40;99.90
46490;DHT22;32204;49.160;8.580;2023-08-08T08:39:55;20.40;99.90
46490;DHT22;32204;49.160;8.580;2023-08-08T08:42:22;20.50;99.90
46490;DHT22;32204;49.160;8.580;2023-08-08T08:44:47;20.70;99.90
46490;DHT22;32204;49.160;8.580;2023-08-08T08:47:15;20.70;99.90
46490;DHT22;32204;49.160;8.580;2023-08-08T08:49:44;20.80;99.90
46490;DHT22;32204;49.160;8.580;2023-08-08T08:52:11;20.80;99.90
46490;DHT22;32204;49.160;8.580;2023-08-08T08:54:37;20.80;99.90
46490;DHT22;32204;49.160;8.580;2023-08-08T08:57:02;20.90;99.90
46490;DHT22;32204;49.160;8.580;2023-08-08T08:59:29;20.70;99.90
46490;DHT22;32204;49.160;8.580;2023-08-08T09:01:56;20.70;99.90
46490;DHT22;32204;49.160;8.580;2023-08-08T09:04:22;20.90;99.90
46490;DHT22;32204;49.160;8.580;2023-08-08T09:06:49;20.80;99.90
46490;DHT22;32204;49.160;8.580;2023-08-08T09:09:15;21.10;99.90
46490;DHT22;32204;49.160;8.580;2023-08-08T09:11:45;21.40;99.90
46490;DHT22;32204;49.160;8.580;2023-08-08T09:14:17;21.60;99.90
46490;DHT22;32204;49.160;8.580;2023-08-08T09:16:44;21.50;94.60
46490;DHT22;32204;49.160;8.580;2023-08-08T09:19:11;21.50;95.80
46490;DHT22;32204;49.160;8.580;2023-08-08T09:21:37;21.50;93.60
46490;DHT22;32204;49.160;8.580;2023-08-08T09:24:03;21.30;87.20
46490;DHT22;32204;49.160;8.580;2023-08-08T09:26:28;21.30;87.20
46490;DHT22;32204;49.160;8.580;2023-08-08T09:28:54;21.30;97.60
46490;DHT22;32204;49.160;8.580;2023-08-08T09:31:20;21.30;87.10
46490;DHT22;32204;49.160;8.580;2023-08-08T09:33:45;21.20;89.10
46490;DHT22;32204;49.160;8.580;2023-08-08T09:36:17;21.30;89.60
46490;DHT22;32204;49.160;8.580;2023-08-08T09:38:45;21.40;89.60
46490;DHT22;32204;49.160;8.580;2023-08-08T09:41:11;21.60;91.60
46490;DHT22;32204;49.160;8.580;2023-08-08T09:43:37;21.70;81.80
46490;DHT22;32204;49.160;8.580;2023-08-08T09:46:02;21.60;72.50
46490;DHT22;32204;49.160;8.580;2023-08-08T09:48:32;21.60;80.80
46490;DHT22;32204;49.160;8.580;2023-08-08T09:51:01;21.70;86.80
46490;DHT22;32204;49.160;8.580;2023-08-08T09:53:30;21.70;83.70
46490;DHT22;32204;49.160;8.580;2023-08-08T09:55:57;21.50;65.80
46490;DHT22;32204;49.160;8.580;2023-08-08T09:58:23;21.50;75.90
46490;DHT22;32204;49.160;8.580;2023-08-08T10:00:52;21.70;64.50
46490;DHT22;32204;49.160;8.580;2023-08-08T10:03:18;21.80;58.10
46490;DHT22;32204;49.160;8.580;2023-08-08T10:05:44;21.70;54.60
46490;DHT22;32204;49.160;8.580;2023-08-08T10:08:11;21.50;45.90
46490;DHT22;32204;49.160;8.580;2023-08-08T10:10:37;21.30;46.40
46490;DHT22;32204;49.160;8.580;2023-08-08T10:13:03;21.10;45.50
46490;DHT22;32204;49.160;8.580;2023-08-08T10:15:30;21.20;47.40
46490;DHT22;32204;49.160;8.580;2023-08-08T10:17:57;21.30;53.90
46490;DHT22;32204;49.160;8.580;2023-08-08T10:20:24;21.60;55.40
46490;DHT22;32204;49.160;8.580;2023-08-08T10:22:52;21.70;46.30
46490;DHT22;32204;49.160;8.580;2023-08-08T10:25:27;21.60;42.90
46490;DHT22;32204;49.160;8.580;2023-08-08T10:28:22;21.40;35.60
46490;DHT22;32204;49.160;8.580;2023-08-08T10:30:59;21.40;36.60
46490;DHT22;32204;49.160;8.580;2023-08-08T10:33:38;21.70;46.00
46490;DHT22;32204;49.160;8.580;2023-08-08T10:36:06;21.80;39.60
46490;DHT22;32204;49.160;8.580;2023-08-08T10:38:48;21.90;33.50
46490;DHT22;32204;49.160;8.580;2023-08-08T10:41:17;22.00;27.90
46490;DHT22;32204;49.160;8.580;2023-08-08T10:43:53;22.10;24.60
46490;DHT22;32204;49.160;8.580;2023-08-08T10:46:28;22.30;25.60
46490;DHT22;32204;49.160;8.580;2023-08-08T10:48:58;22.30;24.10
46490;DHT22;32204;49.160;8.580;2023-08-08T10:51:38;22.50;25.10
46490;DHT22;32204;49.160;8.580;2023-08-08T10:54:19;22.40;24.30
46490;DHT22;32204;49.160;8.580;2023-08-08T10:56:52;22.50;22.10
46490;DHT22;32204;49.160;8.580;2023-08-08T10:59:23;22.70;22.70
46490;DHT22;32204;49.160;8.580;2023-08-08T11:01:50;23.00;24.70
46490;DHT22;32204;49.160;8.580;2023-08-08T11:04:20;23.10;19.00
46490;DHT22;32204;49.160;8.580;2023-08-08T11:06:46;23.10;7.80
46490;DHT22;32204;49.160;8.580;2023-08-08T11:09:13;23.00;8.70
46490;DHT22;32204;49.160;8.580;2023-08-08T11:11:41;23.10;10.00
46490;DHT22;32204;49.160;8.580;2023-08-08T11:14:17;23.10;10.60
46490;DHT22;32204;49.160;8.580;2023-08-08T11:16:44;23.10;9.60
46490;DHT22;32204;49.160;8.580;2023-08-08T11:19:11;23.20;6.00
46490;DHT22;32204;49.160;8.580;2023-08-08T11:21:40;23.00;1.50
46490;DHT22;32204;49.160;8.580;2023-08-08T11:24:06;22.90;1.00
46490;DHT22;32204;49.160;8.580;2023-08-08T11:26:36;22.70;1.00
46490;DHT22;32204;49.160;8.580;2023-08-08T11:29:03;22.70;1.90
46490;DHT22;32204;49.160;8.580;2023-08-08T11:31:29;22.70;1.30
46490;DHT22;32204;49.160;8.580;2023-08-08T11:33:55;22.90;6.20
46490;DHT22;32204;49.160;8.580;2023-08-08T11:36:22;23.20;3.30
46490;DHT22;32204;49.160;8.580;2023-08-08T11:38:49;23.30;1.00
46490;DHT22;32204;49.160;8.580;2023-08-08T11:41:17;23.30;1.00
46490;DHT22;32204;49.160;8.580;2023-08-08T11:43:44;23.20;1.00
46490;DHT22;32204;49.160;8.580;2023-08-08T11:46:12;23.20;1.00
46490;DHT22;32204;49.160;8.580;2023-08-08T11:48:38;23.20;1.00
46490;DHT22;32204;49.160;8.580;2023-08-08T11:51:05;23.40;1.00
46490;DHT22;32204;49.160;8.580;2023-08-08T11:53:30;23.50;1.00
46490;DHT22;32204;49.160;8.580;2023-08-08T11:55:57;23.50;1.00
46490;DHT22;32204;49.160;8.580;2023-08-08T11:58:24;23.50;1.00
46490;DHT22;32204;49.160;8.580;2023-08-08T12:00:51;23.80;1.00
46490;DHT22;32204;49.160;8.580;2023-08-08T12:03:18;24.00;1.00
46490;DHT22;32204;49.160;8.580;2023-08-08T12:05:46;24.00;1.00
46490;DHT22;32204;49.160;8.580;2023-08-08T12:08:12;23.60;1.00
46490;DHT22;32204;49.160;8.580;2023-08-08T12:10:38;23.20;1.00
46490;DHT22;32204;49.160;8.580;2023-08-08T12:13:04;22.90;1.00
46490;DHT22;32204;49.160;8.580;2023-08-08T12:15:34;22.70;1.00
46490;DHT22;32204;49.160;8.580;2023-08-08T12:18:03;23.00;1.00
46490;DHT22;32204;49.160;8.580;2023-08-08T12:20:29;23.20;1.00
46490;DHT22;32204;49.160;8.580;2023-08-08T12:22:56;23.30;1.00
46490;DHT22;32204;49.160;8.580;2023-08-08T12:25:22;23.30;1.00
46490;DHT22;32204;49.160;8.580;2023-08-08T12:27:48;23.30;1.00
46490;DHT22;32204;49.160;8.580;2023-08-08T12:30:14;23.40;1.00
46490;DHT22;32204;49.160;8.580;2023-08-08T12:32:39;23.60;1.00
46490;DHT22;32204;49.160;8.580;2023-08-08T12:35:05;23.70;1.00
46490;DHT22;32204;49.160;8.580;2023-08-08T12:37:32;23.80;1.00
46490;DHT22;32204;49.160;8.580;2023-08-08T12:39:57;23.70;1.00
46490;DHT22;32204;49.160;8.580;2023-08-08T12:42:23;23.60;1.00
46490;DHT22;32204;49.160;8.580;2023-08-08T12:44:49;23.80;1.00
46490;DHT22;32204;49.160;8.580;2023-08-08T12:47:18;23.70;1.00
46490;DHT22;32204;49.160;8.580;2023-08-08T12:49:44;23.70;1.00
46490;DHT22;32204;49.160;8.580;2023-08-08T12:52:10;23.80;1.00
46490;DHT22;32204;49.160;8.580;2023-08-08T12:54:36;23.90;1.00
46490;DHT22;32204;49.160;8.580;2023-08-08T12:57:02;23.80;1.00
46490;DHT22;32204;49.160;8.580;2023-08-08T12:59:28;23.90;1.00
46490;DHT22;32204;49.160;8.580;2023-08-08T13:01:53;24.10;1.00
46490;DHT22;32204;49.160;8.580;2023-08-08T13:04:19;24.00;1.00
46490;DHT22;32204;49.160;8.580;2023-08-08T13:06:45;23.90;1.00
46490;DHT22;32204;49.160;8.580;2023-08-08T13:09:10;23.90;1.00
46490;DHT22;32204;49.160;8.580;2023-08-08T13:11:36;23.90;1.00
46490;DHT22;32204;49.160;8.580;2023-08-08T13:14:02;24.00;1.00
46490;DHT22;32204;49.160;8.580;2023-08-08T13:16:27;24.00;1.00
46490;DHT22;32204;49.160;8.580;2023-08-08T13:18:53;23.80;1.00
46490;DHT22;32204;49.160;8.580;2023-08-08T13:21:19;23.60;1.00
46490;DHT22;32204;49.160;8.580;2023-08-08T13:23:44;23.50;1.00
46490;DHT22;32204;49.160;8.580;2023-08-08T13:26:11;23.50;1.00
46490;DHT22;32204;49.160;8.580;2023-08-08T13:28:36;23.60;1.00
46490;DHT22;32204;49.160;8.580;2023-08-08T13:31:04;23.60;1.00
46490;DHT22;32204;49.160;8.580;2023-08-08T13:33:31;23.70;1.00
46490;DHT22;32204;49.160;8.580;2023-08-08T13:35:57;23.70;1.00
46490;DHT22;32204;49.160;8.580;2023-08-08T13:38:22;23.80;1.00
46490;DHT22;32204;49.160;8.580;2023-08-08T13:40:49;23.80;1.00
46490;DHT22;32204;49.160;8.580;2023-08-08T13:43:15;23.70;1.00
46490;DHT22;32204;49.160;8.580;2023-08-08T13:45:41;23.70;1.00
46490;DHT22;32204;49.160;8.580;2023-08-08T13:48:06;23.80;1.00
46490;DHT22;32204;49.160;8.580;2023-08-08T13:50:32;23.80;1.00
46490;DHT22;32204;49.160;8.580;2023-08-08T13:52:57;24.00;1.00
46490;DHT22;32204;49.160;8.580;2023-08-08T13:55:23;24.00;1.00
46490;DHT22;32204;49.160;8.580;2023-08-08T13:57:51;24.10;1.00
46490;DHT22;32204;49.160;8.580;2023-08-08T14:00:16;24.20;1.00
46490;DHT22;32204;49.160;8.580;2023-08-08T14:02:42;24.20;1.00
46490;DHT22;32204;49.160;8.580;2023-08-08T14:05:08;24.30;1.00
46490;DHT22;32204;49.160;8.580;2023-08-08T14:07:34;24.30;1.00
46490;DHT22;32204;49.160;8.580;2023-08-08T14:10:01;24.40;1.00
46490;DHT22;32204;49.160;8.580;2023-08-08T14:12:26;24.20;1.00
46490;DHT22;32204;49.160;8.580;2023-08-08T14:14:52;24.20;1.00
46490;DHT22;32204;49.160;8.580;2023-08-08T14:17:18;24.00;1.00
46490;DHT22;32204;49.160;8.580;2023-08-08T14:19:43;23.90;1.00
46490;DHT22;32204;49.160;8.580;2023-08-08T14:22:09;24.00;1.00
46490;DHT22;32204;49.160;8.580;2023-08-08T14:24:36;24.10;1.00
46490;DHT22;32204;49.160;8.580;2023-08-08T14:27:02;24.10;1.00
46490;DHT22;32204;49.160;8.580;2023-08-08T14:29:27;24.30;1.00
46490;DHT22;32204;49.160;8.580;2023-08-08T14:31:53;24.40;1.00
46490;DHT22;32204;49.160;8.580;2023-08-08T14:34:18;24.40;1.00
46490;DHT22;32204;49.160;8.580;2023-08-08T14:36:44;24.70;1.00
46490;DHT22;32204;49.160;8.580;2023-08-08T14:39:10;24.80;1.00
46490;DHT22;32204;49.160;8.580;2023-08-08T14:41:36;25.00;1.00
46490;DHT22;32204;49.160;8.580;2023-08-08T14:44:02;24.70;1.00
46490;DHT22;32204;49.160;8.580;2023-08-08T14:46:28;24.60;1.00
46490;DHT22;32204;49.160;8.580;2023-08-08T14:48:55;24.60;1.00
46490;DHT22;32204;49.160;8.580;2023-08-08T14:51:20;24.80;1.00
46490;DHT22;32204;49.160;8.580;2023-08-08T14:53:46;24.80;1.00
46490;DHT22;32204;49.160;8.580;2023-08-08T14:56:12;24.80;1.00
46490;DHT22;32204;49.160;8.580;2023-08-08T14:58:37;24.90;1.00
46490;DHT22;32204;49.160;8.580;2023-08-08T15:01:03;24.70;1.00
46490;DHT22;32204;49.160;8.580;2023-08-08T15:03:29;25.00;1.00
46490;DHT22;32204;49.160;8.580;2023-08-08T15:05:54;25.30;1.00
46490;DHT22;32204;49.160;8.580;2023-08-08T15:08:20;24.90;1.00
46490;DHT22;32204;49.160;8.580;2023-08-08T15:10:46;24.70;1.00
46490;DHT22;32204;49.160;8.580;2023-08-08T15:13:12;24.80;1.00
46490;DHT22;32204;49.160;8.580;2023-08-08T15:15:38;24.70;1.00
46490;DHT22;32204;49.160;8.580;2023-08-08T15:18:03;24.50;1.00
46490;DHT22;32204;49.160;8.580;2023-08-08T15:20:30;24.30;1.00
46490;DHT22;32204;49.160;8.580;2023-08-08T15:22:56;24.10;1.00
46490;DHT22;32204;49.160;8.580;2023-08-08T15:25:22;23.80;1.00
46490;DHT22;32204;49.160;8.580;2023-08-08T15:27:47;23.60;1.00
46490;DHT22;32204;49.160;8.580;2023-08-08T15:30:13;23.60;1.00
46490;DHT22;32204;49.160;8.580;2023-08-08T15:32:38;23.50;1.00
46490;DHT22;32204;49.160;8.580;2023-08-08T15:35:04;23.30;1.00